SWA1655 KELP-KDEN
Flight info
| Callsign | SWA1655 |
|---|---|
| Flight time | 1h 26m |
| Altitude | 34000 |
| Route | ATKNN5 SLNNK GNDLA TBARR4 |
| Aircraft | B738/M-SDE2E3FGHIRWXY/LB1 |
Departure
| Time | 2026-05-06 03:33 |
|---|---|
| Airport | El Paso International Airport (KELP) |
Arrival
| Time | 2026-05-06 04:59 |
|---|---|
| Airport | Denver International Airport (KDEN) |
| Time | Latitude | Longitude | Altitude | Speed | Heading |
|---|---|---|---|---|---|
| 2026-05-06 03:10 | 31.79981 | -106.39363 | 3946 ft | 0 kts | 334° |
| 2026-05-06 03:23 | 31.79971 | -106.39358 | 3946 ft | 3 kts | 334° |
| 2026-05-06 03:23 | 31.79953 | -106.39348 | 3946 ft | 3 kts | 341° |
| 2026-05-06 03:23 | 31.79934 | -106.39343 | 3946 ft | 3 kts | 12° |
| 2026-05-06 03:24 | 31.79924 | -106.39346 | 3946 ft | 2 kts | 72° |
| 2026-05-06 03:24 | 31.79923 | -106.39349 | 3946 ft | 1 kts | 75° |
| 2026-05-06 03:26 | 31.79926 | -106.39336 | 3946 ft | 4 kts | 75° |
| 2026-05-06 03:26 | 31.79939 | -106.39279 | 3946 ft | 9 kts | 73° |
| 2026-05-06 03:26 | 31.79958 | -106.39212 | 3946 ft | 9 kts | 76° |
| 2026-05-06 03:26 | 31.79984 | -106.39151 | 3946 ft | 8 kts | 71° |
| 2026-05-06 03:27 | 31.79989 | -106.39085 | 3946 ft | 8 kts | 89° |
| 2026-05-06 03:27 | 31.79989 | -106.39002 | 3946 ft | 12 kts | 89° |
| 2026-05-06 03:27 | 31.79990 | -106.38884 | 3946 ft | 17 kts | 90° |
| 2026-05-06 03:27 | 31.79990 | -106.38723 | 3946 ft | 22 kts | 90° |
| 2026-05-06 03:28 | 31.79991 | -106.38534 | 3946 ft | 24 kts | 90° |
| 2026-05-06 03:28 | 31.79992 | -106.38333 | 3946 ft | 25 kts | 90° |
| 2026-05-06 03:28 | 31.79993 | -106.38140 | 3946 ft | 23 kts | 90° |
| 2026-05-06 03:28 | 31.79992 | -106.37952 | 3946 ft | 23 kts | 91° |
| 2026-05-06 03:29 | 31.79985 | -106.37771 | 3946 ft | 22 kts | 93° |
| 2026-05-06 03:29 | 31.79977 | -106.37595 | 3946 ft | 21 kts | 94° |
| 2026-05-06 03:29 | 31.79969 | -106.37424 | 3946 ft | 21 kts | 93° |
| 2026-05-06 03:29 | 31.79960 | -106.37258 | 3946 ft | 20 kts | 93° |
| 2026-05-06 03:30 | 31.79952 | -106.37096 | 3946 ft | 20 kts | 92° |
| 2026-05-06 03:30 | 31.79944 | -106.36920 | 3946 ft | 24 kts | 94° |
| 2026-05-06 03:30 | 31.79932 | -106.36702 | 3946 ft | 29 kts | 94° |
| 2026-05-06 03:30 | 31.79921 | -106.36464 | 3946 ft | 28 kts | 93° |
| 2026-05-06 03:31 | 31.79909 | -106.36239 | 3946 ft | 27 kts | 94° |
| 2026-05-06 03:31 | 31.79899 | -106.36049 | 3946 ft | 17 kts | 92° |
| 2026-05-06 03:31 | 31.79978 | -106.35985 | 3946 ft | 16 kts | 2° |
| 2026-05-06 03:31 | 31.80063 | -106.36030 | 3947 ft | 15 kts | 279° |
| 2026-05-06 03:32 | 31.80078 | -106.36295 | 3946 ft | 63 kts | 274° |
| 2026-05-06 03:32 | 31.80115 | -106.37059 | 3945 ft | 123 kts | 273° |
| 2026-05-06 03:32 | 31.80114 | -106.38214 | 4091 ft | 155 kts | 270° |
| 2026-05-06 03:32 | 31.80149 | -106.39519 | 4513 ft | 168 kts | 266° |
| 2026-05-06 03:33 | 31.79797 | -106.40878 | 5003 ft | 181 kts | 239° |
| 2026-05-06 03:33 | 31.79165 | -106.42083 | 5973 ft | 170 kts | 242° |
| 2026-05-06 03:33 | 31.78560 | -106.43367 | 6362 ft | 190 kts | 244° |
| 2026-05-06 03:33 | 31.77888 | -106.44814 | 6598 ft | 211 kts | 244° |
| 2026-05-06 03:34 | 31.77150 | -106.46384 | 6866 ft | 228 kts | 244° |
| 2026-05-06 03:34 | 31.76398 | -106.48075 | 7211 ft | 239 kts | 246° |
| 2026-05-06 03:34 | 31.75978 | -106.50031 | 7186 ft | 268 kts | 274° |
| 2026-05-06 03:34 | 31.76639 | -106.52175 | 7322 ft | 291 kts | 302° |
| 2026-05-06 03:35 | 31.77899 | -106.54031 | 8234 ft | 286 kts | 306° |
| 2026-05-06 03:35 | 31.79108 | -106.55829 | 9394 ft | 275 kts | 304° |
| 2026-05-06 03:35 | 31.80378 | -106.57555 | 10127 ft | 285 kts | 316° |
| 2026-05-06 03:35 | 31.82184 | -106.58715 | 10554 ft | 316 kts | 338° |
| 2026-05-06 03:36 | 31.84443 | -106.59242 | 10729 ft | 343 kts | 346° |
| 2026-05-06 03:36 | 31.86818 | -106.59630 | 11236 ft | 350 kts | 346° |
| 2026-05-06 03:36 | 31.89269 | -106.60011 | 11644 ft | 360 kts | 346° |
| 2026-05-06 03:36 | 31.91763 | -106.60414 | 12306 ft | 361 kts | 346° |
| 2026-05-06 03:37 | 31.94265 | -106.60841 | 12879 ft | 367 kts | 345° |
| 2026-05-06 03:37 | 31.96826 | -106.61296 | 13444 ft | 372 kts | 345° |
| 2026-05-06 03:37 | 31.99390 | -106.61764 | 14197 ft | 372 kts | 344° |
| 2026-05-06 03:37 | 32.01991 | -106.62220 | 15206 ft | 373 kts | 341° |
| 2026-05-06 03:38 | 32.04359 | -106.63174 | 15650 ft | 361 kts | 323° |
| 2026-05-06 03:38 | 32.06250 | -106.65021 | 16040 ft | 349 kts | 307° |
| 2026-05-06 03:38 | 32.07943 | -106.67117 | 16506 ft | 354 kts | 306° |
| 2026-05-06 03:38 | 32.09647 | -106.69230 | 17063 ft | 358 kts | 307° |
| 2026-05-06 03:39 | 32.11418 | -106.71328 | 17442 ft | 366 kts | 307° |
| 2026-05-06 03:39 | 32.13275 | -106.73386 | 18203 ft | 369 kts | 314° |
| 2026-05-06 03:39 | 32.15351 | -106.75136 | 18903 ft | 372 kts | 317° |
| 2026-05-06 03:39 | 32.17557 | -106.76832 | 19524 ft | 377 kts | 319° |
| 2026-05-06 03:40 | 32.19677 | -106.78451 | 20137 ft | 379 kts | 317° |
| 2026-05-06 03:40 | 32.21896 | -106.80135 | 20675 ft | 382 kts | 318° |
| 2026-05-06 03:40 | 32.24164 | -106.81830 | 21067 ft | 388 kts | 317° |
| 2026-05-06 03:40 | 32.26436 | -106.83572 | 21549 ft | 392 kts | 316° |
| 2026-05-06 03:41 | 32.28717 | -106.85329 | 22152 ft | 391 kts | 316° |
| 2026-05-06 03:41 | 32.30984 | -106.87094 | 22624 ft | 393 kts | 315° |
| 2026-05-06 03:41 | 32.33179 | -106.88830 | 22928 ft | 399 kts | 315° |
| 2026-05-06 03:41 | 32.35495 | -106.90654 | 23374 ft | 405 kts | 317° |
| 2026-05-06 03:42 | 32.38053 | -106.92210 | 23723 ft | 428 kts | 327° |
| 2026-05-06 03:42 | 32.40897 | -106.93372 | 24169 ft | 435 kts | 330° |
| 2026-05-06 03:42 | 32.43756 | -106.94453 | 24565 ft | 439 kts | 331° |
| 2026-05-06 03:42 | 32.46590 | -106.95497 | 24844 ft | 442 kts | 330° |
| 2026-05-06 03:43 | 32.49587 | -106.96617 | 25217 ft | 443 kts | 330° |
| 2026-05-06 03:43 | 32.52503 | -106.97716 | 25552 ft | 446 kts | 330° |
| 2026-05-06 03:43 | 32.54502 | -106.98469 | 25742 ft | 449 kts | 330° |
| 2026-05-06 03:43 | 32.58443 | -107.00000 | 26201 ft | 451 kts | 329° |
| 2026-05-06 03:44 | 32.60441 | -107.00789 | 26389 ft | 452 kts | 329° |
| 2026-05-06 03:44 | 32.64427 | -107.02343 | 26841 ft | 456 kts | 329° |
| 2026-05-06 03:44 | 32.67395 | -107.03492 | 27205 ft | 458 kts | 329° |
| 2026-05-06 03:44 | 32.69454 | -107.04294 | 27431 ft | 460 kts | 329° |
| 2026-05-06 03:45 | 32.72501 | -107.05476 | 27788 ft | 461 kts | 329° |
| 2026-05-06 03:45 | 32.75558 | -107.06646 | 28074 ft | 464 kts | 329° |
| 2026-05-06 03:45 | 32.78436 | -107.07770 | 28313 ft | 466 kts | 329° |
| 2026-05-06 03:45 | 32.80865 | -107.08724 | 28487 ft | 469 kts | 329° |
| 2026-05-06 03:46 | 32.83683 | -107.09830 | 28803 ft | 468 kts | 329° |
| 2026-05-06 03:46 | 32.86549 | -107.10950 | 29051 ft | 470 kts | 329° |
| 2026-05-06 03:46 | 32.89453 | -107.12090 | 29288 ft | 472 kts | 329° |
| 2026-05-06 03:46 | 32.92392 | -107.13239 | 29692 ft | 471 kts | 328° |
| 2026-05-06 03:47 | 32.95358 | -107.14397 | 30001 ft | 471 kts | 328° |
| 2026-05-06 03:47 | 32.98388 | -107.15591 | 30283 ft | 473 kts | 328° |
| 2026-05-06 03:47 | 33.00838 | -107.16555 | 30598 ft | 473 kts | 328° |
| 2026-05-06 03:47 | 33.03082 | -107.17434 | 30970 ft | 470 kts | 328° |
| 2026-05-06 03:48 | 33.05270 | -107.18287 | 31254 ft | 470 kts | 328° |
| 2026-05-06 03:48 | 33.08150 | -107.19413 | 31502 ft | 472 kts | 328° |
| 2026-05-06 03:48 | 33.11278 | -107.20640 | 31812 ft | 471 kts | 327° |
| 2026-05-06 03:48 | 33.14377 | -107.21861 | 32172 ft | 469 kts | 327° |
| 2026-05-06 03:49 | 33.17485 | -107.23096 | 32426 ft | 471 kts | 327° |
| 2026-05-06 03:49 | 33.20587 | -107.24320 | 32758 ft | 470 kts | 327° |
| 2026-05-06 03:49 | 33.23693 | -107.25542 | 33133 ft | 468 kts | 327° |
| 2026-05-06 03:49 | 33.26771 | -107.26759 | 33509 ft | 466 kts | 327° |
| 2026-05-06 03:50 | 33.29874 | -107.27938 | 33765 ft | 473 kts | 331° |
| 2026-05-06 03:50 | 33.33185 | -107.28652 | 33945 ft | 492 kts | 342° |
| 2026-05-06 03:50 | 33.36655 | -107.28722 | 33919 ft | 508 kts | 353° |
| 2026-05-06 03:50 | 33.40185 | -107.28291 | 33962 ft | 511 kts | 355° |
| 2026-05-06 03:51 | 33.47230 | -107.27171 | 33952 ft | 510 kts | 357° |
| 2026-05-06 03:51 | 33.54283 | -107.26005 | 33956 ft | 511 kts | 355° |
| 2026-05-06 03:52 | 33.61300 | -107.24909 | 33947 ft | 507 kts | 355° |
| 2026-05-06 03:52 | 33.68238 | -107.23915 | 33969 ft | 504 kts | 354° |
| 2026-05-06 03:53 | 33.75205 | -107.22940 | 33971 ft | 505 kts | 354° |
| 2026-05-06 03:53 | 33.82222 | -107.21932 | 33980 ft | 505 kts | 355° |
| 2026-05-06 03:54 | 33.89178 | -107.20926 | 33991 ft | 509 kts | 354° |
| 2026-05-06 03:54 | 33.96240 | -107.19926 | 33988 ft | 514 kts | 355° |
| 2026-05-06 03:55 | 34.03340 | -107.18856 | 33974 ft | 513 kts | 355° |
| 2026-05-06 03:55 | 34.10437 | -107.17782 | 33959 ft | 514 kts | 355° |
| 2026-05-06 03:56 | 34.17444 | -107.16767 | 33984 ft | 506 kts | 354° |
| 2026-05-06 03:56 | 34.24345 | -107.15760 | 33996 ft | 507 kts | 355° |
| 2026-05-06 03:57 | 34.31346 | -107.14740 | 33999 ft | 506 kts | 355° |
| 2026-05-06 03:57 | 34.38353 | -107.13707 | 33998 ft | 507 kts | 355° |
| 2026-05-06 03:58 | 34.45349 | -107.12681 | 33990 ft | 507 kts | 355° |
| 2026-05-06 03:58 | 34.52361 | -107.11641 | 34006 ft | 507 kts | 355° |
| 2026-05-06 03:59 | 34.59356 | -107.10587 | 34018 ft | 506 kts | 355° |
| 2026-05-06 03:59 | 34.66364 | -107.09563 | 34013 ft | 507 kts | 355° |
| 2026-05-06 04:00 | 34.73380 | -107.08521 | 34024 ft | 508 kts | 355° |
| 2026-05-06 04:00 | 34.80391 | -107.07470 | 34012 ft | 507 kts | 355° |
| 2026-05-06 04:01 | 34.87349 | -107.06417 | 34011 ft | 506 kts | 355° |
| 2026-05-06 04:01 | 34.94386 | -107.05356 | 34027 ft | 506 kts | 354° |
| 2026-05-06 04:02 | 35.01389 | -107.04310 | 34024 ft | 509 kts | 355° |
| 2026-05-06 04:02 | 35.08425 | -107.03271 | 34033 ft | 510 kts | 354° |
| 2026-05-06 04:03 | 35.15411 | -107.02236 | 34018 ft | 508 kts | 355° |
| 2026-05-06 04:03 | 35.22442 | -107.01158 | 34015 ft | 504 kts | 354° |
| 2026-05-06 04:04 | 35.29357 | -107.00124 | 34034 ft | 504 kts | 354° |
| 2026-05-06 04:04 | 35.36319 | -106.99075 | 34032 ft | 505 kts | 354° |
| 2026-05-06 04:05 | 35.43309 | -106.98019 | 34028 ft | 505 kts | 354° |
| 2026-05-06 04:05 | 35.50284 | -106.96962 | 34021 ft | 506 kts | 354° |
| 2026-05-06 04:06 | 35.57267 | -106.95890 | 34021 ft | 505 kts | 355° |
| 2026-05-06 04:06 | 35.64250 | -106.94833 | 34024 ft | 506 kts | 354° |
| 2026-05-06 04:07 | 35.71265 | -106.93731 | 34043 ft | 509 kts | 355° |
| 2026-05-06 04:07 | 35.78262 | -106.92645 | 34018 ft | 507 kts | 354° |
| 2026-05-06 04:08 | 35.85279 | -106.91622 | 34017 ft | 508 kts | 354° |
| 2026-05-06 04:08 | 35.92308 | -106.90556 | 34035 ft | 509 kts | 355° |
| 2026-05-06 04:09 | 35.99291 | -106.89478 | 34018 ft | 508 kts | 355° |
| 2026-05-06 04:09 | 36.06334 | -106.88378 | 34047 ft | 506 kts | 356° |
| 2026-05-06 04:10 | 36.13254 | -106.87289 | 34032 ft | 503 kts | 355° |
| 2026-05-06 04:10 | 36.20179 | -106.86237 | 34031 ft | 499 kts | 355° |
| 2026-05-06 04:11 | 36.26775 | -106.85235 | 34052 ft | 495 kts | 355° |
| 2026-05-06 04:11 | 36.33621 | -106.84210 | 34030 ft | 493 kts | 355° |
| 2026-05-06 04:12 | 36.40380 | -106.83131 | 34033 ft | 492 kts | 355° |
| 2026-05-06 04:12 | 36.47233 | -106.82069 | 34056 ft | 497 kts | 355° |
| 2026-05-06 04:13 | 36.54087 | -106.81033 | 34056 ft | 502 kts | 355° |
| 2026-05-06 04:13 | 36.61043 | -106.79936 | 34042 ft | 505 kts | 356° |
| 2026-05-06 04:14 | 36.67959 | -106.78839 | 34012 ft | 496 kts | 356° |
| 2026-05-06 04:14 | 36.74791 | -106.77741 | 34016 ft | 495 kts | 356° |
| 2026-05-06 04:15 | 36.81634 | -106.76384 | 34031 ft | 501 kts | 2° |
| 2026-05-06 04:15 | 36.88415 | -106.74379 | 34009 ft | 501 kts | 4° |
| 2026-05-06 04:16 | 36.95189 | -106.72349 | 34022 ft | 499 kts | 3° |
| 2026-05-06 04:16 | 37.01945 | -106.70400 | 34032 ft | 498 kts | 3° |
| 2026-05-06 04:17 | 37.08726 | -106.68521 | 34024 ft | 499 kts | 3° |
| 2026-05-06 04:17 | 37.15492 | -106.66619 | 34066 ft | 499 kts | 3° |
| 2026-05-06 04:18 | 37.22240 | -106.64721 | 34055 ft | 501 kts | 3° |
| 2026-05-06 04:18 | 37.29009 | -106.62881 | 34089 ft | 497 kts | 3° |
| 2026-05-06 04:19 | 37.35767 | -106.60918 | 34082 ft | 499 kts | 4° |
| 2026-05-06 04:19 | 37.42581 | -106.58947 | 34074 ft | 498 kts | 3° |
| 2026-05-06 04:20 | 37.49279 | -106.57042 | 34070 ft | 495 kts | 4° |
| 2026-05-06 04:20 | 37.55982 | -106.55161 | 34049 ft | 492 kts | 2° |
| 2026-05-06 04:21 | 37.62688 | -106.53256 | 34034 ft | 495 kts | 4° |
| 2026-05-06 04:21 | 37.69377 | -106.51320 | 34022 ft | 492 kts | 3° |
| 2026-05-06 04:22 | 37.76062 | -106.49408 | 34012 ft | 496 kts | 3° |
| 2026-05-06 04:23 | 37.86167 | -106.46498 | 33887 ft | 491 kts | 3° |
| 2026-05-06 04:23 | 37.89475 | -106.45559 | 33467 ft | 487 kts | 3° |
| 2026-05-06 04:23 | 37.92793 | -106.44616 | 32924 ft | 487 kts | 4° |
| 2026-05-06 04:23 | 37.96085 | -106.43685 | 32328 ft | 484 kts | 4° |
| 2026-05-06 04:24 | 37.99379 | -106.42740 | 31692 ft | 487 kts | 6° |
| 2026-05-06 04:24 | 38.02681 | -106.41770 | 31112 ft | 486 kts | 6° |
| 2026-05-06 04:24 | 38.05955 | -106.40817 | 30759 ft | 480 kts | 7° |
| 2026-05-06 04:24 | 38.09189 | -106.39879 | 30469 ft | 472 kts | 7° |
| 2026-05-06 04:25 | 38.12350 | -106.38956 | 30208 ft | 463 kts | 7° |
| 2026-05-06 04:25 | 38.15474 | -106.38065 | 29961 ft | 460 kts | 8° |
| 2026-05-06 04:25 | 38.18616 | -106.37170 | 29734 ft | 467 kts | 8° |
| 2026-05-06 04:25 | 38.21811 | -106.36257 | 29498 ft | 472 kts | 8° |
| 2026-05-06 04:26 | 38.25014 | -106.35327 | 29257 ft | 472 kts | 8° |
| 2026-05-06 04:26 | 38.28167 | -106.34407 | 29001 ft | 470 kts | 8° |
| 2026-05-06 04:26 | 38.31382 | -106.33485 | 28767 ft | 467 kts | 8° |
| 2026-05-06 04:26 | 38.34501 | -106.32580 | 28548 ft | 464 kts | 8° |
| 2026-05-06 04:27 | 38.37703 | -106.31646 | 28333 ft | 468 kts | 9° |
| 2026-05-06 04:27 | 38.40839 | -106.30729 | 28114 ft | 471 kts | 9° |
| 2026-05-06 04:27 | 38.44043 | -106.29797 | 27884 ft | 471 kts | 9° |
| 2026-05-06 04:27 | 38.47230 | -106.28857 | 27667 ft | 470 kts | 9° |
| 2026-05-06 04:28 | 38.50405 | -106.27927 | 27421 ft | 468 kts | 9° |
| 2026-05-06 04:28 | 38.53583 | -106.27003 | 27199 ft | 469 kts | 9° |
| 2026-05-06 04:28 | 38.56754 | -106.26081 | 26990 ft | 467 kts | 9° |
| 2026-05-06 04:28 | 38.59922 | -106.25158 | 26767 ft | 465 kts | 9° |
| 2026-05-06 04:29 | 38.63070 | -106.24179 | 26531 ft | 470 kts | 17° |
| 2026-05-06 04:29 | 38.65036 | -106.22983 | 26351 ft | 475 kts | 30° |
| 2026-05-06 04:29 | 38.67623 | -106.20343 | 26150 ft | 479 kts | 44° |
| 2026-05-06 04:29 | 38.69847 | -106.17177 | 25977 ft | 479 kts | 49° |
| 2026-05-06 04:30 | 38.71944 | -106.13851 | 25749 ft | 480 kts | 51° |
| 2026-05-06 04:30 | 38.74009 | -106.10493 | 25520 ft | 480 kts | 51° |
| 2026-05-06 04:30 | 38.76084 | -106.07158 | 25295 ft | 480 kts | 50° |
| 2026-05-06 04:30 | 38.78186 | -106.03858 | 25095 ft | 477 kts | 49° |
| 2026-05-06 04:31 | 38.80295 | -106.00598 | 25027 ft | 473 kts | 49° |
| 2026-05-06 04:31 | 38.82410 | -105.97356 | 24999 ft | 475 kts | 49° |
| 2026-05-06 04:31 | 38.84536 | -105.94081 | 25032 ft | 479 kts | 49° |
| 2026-05-06 04:31 | 38.86672 | -105.90817 | 24997 ft | 477 kts | 49° |
| 2026-05-06 04:32 | 38.88788 | -105.87547 | 25021 ft | 478 kts | 51° |
| 2026-05-06 04:32 | 38.90479 | -105.83885 | 25025 ft | 480 kts | 69° |
| 2026-05-06 04:32 | 38.91274 | -105.79741 | 25023 ft | 478 kts | 86° |
| 2026-05-06 04:32 | 38.91150 | -105.75497 | 25036 ft | 476 kts | 103° |
| 2026-05-06 04:33 | 38.90153 | -105.71488 | 25042 ft | 470 kts | 120° |
| 2026-05-06 04:33 | 38.88383 | -105.68011 | 25046 ft | 462 kts | 136° |
| 2026-05-06 04:33 | 38.86003 | -105.65314 | 25055 ft | 453 kts | 151° |
| 2026-05-06 04:33 | 38.83222 | -105.63522 | 25051 ft | 445 kts | 163° |
| 2026-05-06 04:34 | 38.80258 | -105.62540 | 25026 ft | 434 kts | 180° |
| 2026-05-06 04:34 | 38.77313 | -105.62720 | 25044 ft | 419 kts | 195° |
| 2026-05-06 04:34 | 38.74556 | -105.63812 | 25041 ft | 412 kts | 206° |
| 2026-05-06 04:34 | 38.72033 | -105.65523 | 25027 ft | 411 kts | 216° |
| 2026-05-06 04:35 | 38.69853 | -105.67851 | 25030 ft | 409 kts | 229° |
| 2026-05-06 04:35 | 38.68033 | -105.70658 | 25036 ft | 411 kts | 232° |
| 2026-05-06 04:35 | 38.66235 | -105.73529 | 25027 ft | 414 kts | 232° |
| 2026-05-06 04:35 | 38.64432 | -105.76388 | 25026 ft | 413 kts | 232° |
| 2026-05-06 04:36 | 38.62605 | -105.79232 | 25005 ft | 414 kts | 231° |
| 2026-05-06 04:36 | 38.60784 | -105.82024 | 25025 ft | 415 kts | 231° |
| 2026-05-06 04:36 | 38.58912 | -105.84858 | 25003 ft | 417 kts | 231° |
| 2026-05-06 04:36 | 38.57044 | -105.87704 | 24991 ft | 418 kts | 231° |
| 2026-05-06 04:37 | 38.55177 | -105.90546 | 24996 ft | 417 kts | 231° |
| 2026-05-06 04:37 | 38.53307 | -105.93373 | 24998 ft | 416 kts | 231° |
| 2026-05-06 04:37 | 38.51543 | -105.96291 | 24910 ft | 417 kts | 242° |
| 2026-05-06 04:37 | 38.50850 | -105.99840 | 25061 ft | 415 kts | 263° |
| 2026-05-06 04:38 | 38.50575 | -106.03557 | 24942 ft | 423 kts | 263° |
| 2026-05-06 04:38 | 38.50483 | -106.07288 | 24966 ft | 420 kts | 274° |
| 2026-05-06 04:38 | 38.51250 | -106.10874 | 24990 ft | 424 kts | 294° |
| 2026-05-06 04:38 | 38.52919 | -106.13992 | 25017 ft | 431 kts | 310° |
| 2026-05-06 04:39 | 38.55204 | -106.16513 | 25021 ft | 438 kts | 322° |
| 2026-05-06 04:39 | 38.57935 | -106.18275 | 25029 ft | 447 kts | 340° |
| 2026-05-06 04:39 | 38.61033 | -106.18837 | 25036 ft | 456 kts | 359° |
| 2026-05-06 04:39 | 38.64164 | -106.18045 | 25047 ft | 465 kts | 18° |
| 2026-05-06 04:40 | 38.67110 | -106.16310 | 25036 ft | 470 kts | 27° |
| 2026-05-06 04:40 | 38.69875 | -106.14008 | 25037 ft | 476 kts | 35° |
| 2026-05-06 04:40 | 38.72359 | -106.11238 | 25022 ft | 473 kts | 45° |
| 2026-05-06 04:40 | 38.74573 | -106.08132 | 25048 ft | 472 kts | 47° |
| 2026-05-06 04:41 | 38.76742 | -106.04948 | 24957 ft | 476 kts | 47° |
| 2026-05-06 04:41 | 38.78919 | -106.01774 | 24832 ft | 472 kts | 47° |
| 2026-05-06 04:41 | 38.81076 | -105.98627 | 24717 ft | 470 kts | 47° |
| 2026-05-06 04:41 | 38.83252 | -105.95479 | 24609 ft | 473 kts | 47° |
| 2026-05-06 04:42 | 38.85460 | -105.92323 | 24391 ft | 479 kts | 46° |
| 2026-05-06 04:42 | 38.87686 | -105.89150 | 24022 ft | 474 kts | 46° |
| 2026-05-06 04:42 | 38.89849 | -105.86005 | 23681 ft | 466 kts | 49° |
| 2026-05-06 04:42 | 38.91905 | -105.82819 | 23319 ft | 462 kts | 49° |
| 2026-05-06 04:43 | 38.93929 | -105.79611 | 22965 ft | 461 kts | 49° |
| 2026-05-06 04:43 | 38.95959 | -105.76426 | 22626 ft | 461 kts | 49° |
| 2026-05-06 04:43 | 38.97997 | -105.73247 | 22275 ft | 460 kts | 49° |
| 2026-05-06 04:43 | 39.00024 | -105.70086 | 21927 ft | 457 kts | 49° |
| 2026-05-06 04:44 | 39.02018 | -105.66977 | 21581 ft | 456 kts | 48° |
| 2026-05-06 04:44 | 39.04055 | -105.63804 | 21227 ft | 454 kts | 48° |
| 2026-05-06 04:44 | 39.06032 | -105.60712 | 20879 ft | 451 kts | 48° |
| 2026-05-06 04:44 | 39.08046 | -105.57565 | 20524 ft | 449 kts | 48° |
| 2026-05-06 04:45 | 39.10027 | -105.54474 | 20104 ft | 445 kts | 48° |
| 2026-05-06 04:45 | 39.11988 | -105.51412 | 19714 ft | 440 kts | 48° |
| 2026-05-06 04:45 | 39.13895 | -105.48424 | 19311 ft | 435 kts | 48° |
| 2026-05-06 04:45 | 39.15808 | -105.45431 | 18939 ft | 430 kts | 47° |
| 2026-05-06 04:46 | 39.17711 | -105.42458 | 18532 ft | 430 kts | 49° |
| 2026-05-06 04:46 | 39.19583 | -105.39445 | 18106 ft | 429 kts | 48° |
| 2026-05-06 04:46 | 39.21449 | -105.36451 | 17722 ft | 428 kts | 48° |
| 2026-05-06 04:46 | 39.23325 | -105.33461 | 17325 ft | 430 kts | 49° |
| 2026-05-06 04:47 | 39.25132 | -105.30416 | 16915 ft | 425 kts | 55° |
| 2026-05-06 04:47 | 39.26477 | -105.27034 | 16511 ft | 421 kts | 67° |
| 2026-05-06 04:47 | 39.27463 | -105.23501 | 16121 ft | 416 kts | 70° |
| 2026-05-06 04:47 | 39.28418 | -105.20022 | 15721 ft | 405 kts | 70° |
| 2026-05-06 04:48 | 39.29352 | -105.16645 | 15325 ft | 395 kts | 70° |
| 2026-05-06 04:48 | 39.30278 | -105.13355 | 14954 ft | 385 kts | 69° |
| 2026-05-06 04:48 | 39.31190 | -105.10155 | 14636 ft | 374 kts | 69° |
| 2026-05-06 04:48 | 39.32065 | -105.07040 | 14320 ft | 365 kts | 70° |
| 2026-05-06 04:49 | 39.32923 | -105.03996 | 14020 ft | 356 kts | 70° |
| 2026-05-06 04:49 | 39.33760 | -105.01028 | 13708 ft | 347 kts | 70° |
| 2026-05-06 04:49 | 39.34574 | -104.98131 | 13411 ft | 339 kts | 70° |
| 2026-05-06 04:49 | 39.35377 | -104.95289 | 13112 ft | 335 kts | 70° |
| 2026-05-06 04:50 | 39.36178 | -104.92476 | 12825 ft | 334 kts | 70° |
| 2026-05-06 04:50 | 39.36966 | -104.89642 | 12534 ft | 335 kts | 70° |
| 2026-05-06 04:50 | 39.37752 | -104.86817 | 12237 ft | 335 kts | 70° |
| 2026-05-06 04:50 | 39.38553 | -104.83984 | 11967 ft | 336 kts | 70° |
| 2026-05-06 04:51 | 39.39353 | -104.81161 | 11695 ft | 331 kts | 70° |
| 2026-05-06 04:51 | 39.40135 | -104.78388 | 11425 ft | 325 kts | 71° |
| 2026-05-06 04:51 | 39.40900 | -104.75650 | 11145 ft | 320 kts | 70° |
| 2026-05-06 04:51 | 39.41655 | -104.72950 | 10866 ft | 319 kts | 68° |
| 2026-05-06 04:52 | 39.42759 | -104.70797 | 10557 ft | 316 kts | 41° |
| 2026-05-06 04:52 | 39.44671 | -104.69510 | 10330 ft | 309 kts | 17° |
| 2026-05-06 04:52 | 39.46648 | -104.69037 | 10083 ft | 308 kts | 4° |
| 2026-05-06 04:52 | 39.48688 | -104.68998 | 10037 ft | 302 kts | 0° |
| 2026-05-06 04:53 | 39.50700 | -104.69025 | 10002 ft | 311 kts | 0° |
| 2026-05-06 04:53 | 39.52667 | -104.69054 | 9980 ft | 312 kts | 0° |
| 2026-05-06 04:53 | 39.54853 | -104.69087 | 9989 ft | 315 kts | 1° |
| 2026-05-06 04:53 | 39.57064 | -104.69066 | 9915 ft | 310 kts | 1° |
| 2026-05-06 04:54 | 39.59183 | -104.69022 | 9659 ft | 305 kts | 2° |
| 2026-05-06 04:54 | 39.61278 | -104.69011 | 9345 ft | 298 kts | 1° |
| 2026-05-06 04:54 | 39.63347 | -104.68989 | 9040 ft | 295 kts | 2° |
| 2026-05-06 04:54 | 39.65399 | -104.68955 | 8700 ft | 294 kts | 2° |
| 2026-05-06 04:55 | 39.67010 | -104.68937 | 8427 ft | 289 kts | 1° |
| 2026-05-06 04:55 | 39.69019 | -104.68930 | 8103 ft | 288 kts | 1° |
| 2026-05-06 04:55 | 39.70933 | -104.68899 | 7736 ft | 280 kts | 0° |
| 2026-05-06 04:55 | 39.72627 | -104.68880 | 7380 ft | 270 kts | 0° |
| 2026-05-06 04:56 | 39.74457 | -104.68873 | 7069 ft | 254 kts | 0° |
| 2026-05-06 04:56 | 39.76110 | -104.68815 | 6979 ft | 225 kts | 358° |
| 2026-05-06 04:56 | 39.77561 | -104.68804 | 6974 ft | 197 kts | 359° |
| 2026-05-06 04:56 | 39.78801 | -104.68800 | 6933 ft | 187 kts | 360° |
| 2026-05-06 04:57 | 39.79812 | -104.68795 | 6668 ft | 191 kts | 359° |
| 2026-05-06 04:57 | 39.80737 | -104.68785 | 6553 ft | 179 kts | 359° |
| 2026-05-06 04:57 | 39.81967 | -104.68761 | 6272 ft | 172 kts | 357° |
| 2026-05-06 04:57 | 39.83114 | -104.68799 | 6089 ft | 163 kts | 5° |
| 2026-05-06 04:58 | 39.84222 | -104.68754 | 5831 ft | 157 kts | 0° |
| 2026-05-06 04:58 | 39.85300 | -104.68732 | 5608 ft | 156 kts | 0° |
| 2026-05-06 04:58 | 39.86378 | -104.68717 | 5415 ft | 157 kts | 0° |
| 2026-05-06 04:58 | 39.87379 | -104.68706 | 5359 ft | 104 kts | 0° |
| 2026-05-06 04:59 | 39.87772 | -104.68701 | 5360 ft | 33 kts | 1° |
| 2026-05-06 04:59 | 39.87986 | -104.68700 | 5360 ft | 30 kts | 359° |
| 2026-05-06 04:59 | 39.88185 | -104.68697 | 5361 ft | 28 kts | 0° |
| 2026-05-06 04:59 | 39.88372 | -104.68680 | 5360 ft | 26 kts | 7° |
| 2026-05-06 05:00 | 39.88539 | -104.68610 | 5359 ft | 25 kts | 28° |
| 2026-05-06 05:00 | 39.88594 | -104.68509 | 5358 ft | 15 kts | 120° |
| 2026-05-06 05:00 | 39.88489 | -104.68482 | 5360 ft | 18 kts | 180° |
| 2026-05-06 05:00 | 39.88356 | -104.68482 | 5360 ft | 21 kts | 180° |
| 2026-05-06 05:01 | 39.88207 | -104.68484 | 5360 ft | 23 kts | 181° |
| 2026-05-06 05:01 | 39.88036 | -104.68486 | 5360 ft | 26 kts | 180° |
| 2026-05-06 05:01 | 39.87857 | -104.68489 | 5360 ft | 25 kts | 180° |
| 2026-05-06 05:01 | 39.87690 | -104.68491 | 5360 ft | 23 kts | 181° |
| 2026-05-06 05:02 | 39.87531 | -104.68493 | 5361 ft | 23 kts | 180° |
| 2026-05-06 05:02 | 39.87358 | -104.68495 | 5359 ft | 26 kts | 180° |
| 2026-05-06 05:02 | 39.87168 | -104.68496 | 5359 ft | 29 kts | 181° |
| 2026-05-06 05:02 | 39.86973 | -104.68498 | 5361 ft | 27 kts | 180° |
| 2026-05-06 05:03 | 39.86790 | -104.68501 | 5361 ft | 25 kts | 180° |
| 2026-05-06 05:03 | 39.86621 | -104.68503 | 5362 ft | 24 kts | 181° |
| 2026-05-06 05:03 | 39.86462 | -104.68504 | 5362 ft | 23 kts | 180° |
| 2026-05-06 05:03 | 39.86307 | -104.68506 | 5363 ft | 22 kts | 181° |
| 2026-05-06 05:04 | 39.86168 | -104.68500 | 5366 ft | 13 kts | 155° |
| 2026-05-06 05:04 | 39.86139 | -104.68396 | 5369 ft | 13 kts | 91° |
| 2026-05-06 05:04 | 39.86138 | -104.68282 | 5370 ft | 12 kts | 90° |
| 2026-05-06 05:04 | 39.86137 | -104.68160 | 5373 ft | 15 kts | 90° |
| 2026-05-06 05:05 | 39.86136 | -104.68018 | 5372 ft | 16 kts | 90° |
| 2026-05-06 05:05 | 39.86134 | -104.67863 | 5374 ft | 18 kts | 88° |
| 2026-05-06 05:05 | 39.86134 | -104.67687 | 5375 ft | 20 kts | 90° |
| 2026-05-06 05:05 | 39.86152 | -104.67578 | 5374 ft | 7 kts | 1° |
| 2026-05-06 05:06 | 39.86200 | -104.67589 | 5376 ft | 7 kts | 349° |
| 2026-05-06 05:06 | 39.86238 | -104.67581 | 5376 ft | 2 kts | 22° |
| 2026-05-06 05:06 | 39.86249 | -104.67575 | 5374 ft | 2 kts | 24° |
| 2026-05-06 05:06 | 39.86254 | -104.67572 | 5376 ft | 0 kts | 24° |